Aérodrome :
LOGIN :

S'inscrire | Disclaimer

   EN    FR    IT 

 










Légende :    VFR   VFR Marginal   IFR   IFR Intensif   IFR Très Intensif
Visi : 
Plafond : 
>= 8 km
>= 3000ft
5 à 8 km
1000 à 3000 ft
1500m à 5 km
500 à 1000 ft
800 à 1500m
200 à 500 ft
< 800m
< 200 ft
Symboles :   Orages  Brouillard  Fortes neiges  Fortes précipitations  Vent > 20 kt
SIGMETs :   Divers  Orages  Givrage  Turbulence  Onde Orograph.  Cendres Volcan.






- Altitude de l'aérodrome : 1504 ft
- Code IATA : PNA


LEPP - Noain Pamplona

DERNIER METAR :
  • 100400Z AUTO 29005KT 9999 FEW025 SCT038 06/06 Q1030

METARs EXPIRÉS :
  • 100330Z AUTO 31007KT 280V340 9999 BKN028 BKN036 07/06 Q1030
  • 100300Z AUTO 31007KT 280V340 9000 -RA FEW025 BKN030 07/07 Q1030
  • 100230Z AUTO 30006KT 9000 SCT025 BKN034 OVC041 07/06 Q1030
  • 100200Z AUTO 30006KT 9999 FEW021 OVC033 07/06 Q1030
  • 100130Z AUTO VRB01KT 9999 -RA BKN019 BKN024 OVC045 07/06 Q1030

TAF TAF LEPP
Valide du 10 à 03h jusqu'au 11 à 03h UTC


100200Z 1003/1103 VRB05KT 9999 SCT035 TX12/1014Z TN04/1007Z
PROB40
TEMPO 1003/1008 1500 BCFG
PROB30
TEMPO 1003/1008 0800 FG VV001



MET'MAP, la Météo Aéronautique d'un coup d'oeil ! - Copyright ORBIFLY Décembre 2007 - Disclaimer

ORBIFLY MET'MAP TEAM :

Programmation & Développement : Alexandra Zaïnal
Sur une idée originale de : Baudouin d'Aumeries
Assistance à la programmation : Marc-Olivier Méhu
Soutien technique & logistique : Manuel Goepfert

Contact : metmap@orbifly.com




SOURCES & CREDITS :

   NOAA